Time;durP1;ratioP1;P1;durP2;ratioP2;P2;SDS_P1;SDS_P2;PMS_P1;PMS_P2;Temp;Humidity;BMP_temperature;BMP_pressure;BME280_temperature;BME280_humidity;BME280_pressure;Samples;Min_cycle;Max_cycle;Signal;HPM_P1;HPM_P2
2022/12/23 00:00:43;;;;;;;10.07;4.87;;;5.20;99.90;4.40;98892;;;;572586;246;24109;-73
2022/12/23 00:03:14;;;;;;;8.47;4.20;;;5.20;99.90;4.50;98893;;;;573498;246;24096;-72
2022/12/23 00:05:39;;;;;;;5.13;4.50;;;5.30;99.90;4.50;98889;;;;573292;246;24186;-72
2022/12/23 00:08:09;;;;;;;5.90;4.50;;;5.30;99.90;4.50;98895;;;;582025;242;24098;-72
2022/12/23 00:10:34;;;;;;;6.53;4.17;;;5.30;99.90;4.50;98893;;;;581661;246;24120;-73
2022/12/23 00:15:48;;;;;;;10.10;5.30;;;5.40;99.90;4.50;98893;;;;573102;246;24174;-73
2022/12/23 00:18:16;;;;;;;5.87;4.17;;;5.30;99.90;4.50;98885;;;;572332;246;24115;-75
2022/12/23 00:20:45;;;;;;;10.30;4.93;;;5.30;99.90;4.50;98878;;;;572407;246;24079;-72
2022/12/23 00:23:13;;;;;;;8.47;4.03;;;5.30;99.90;4.50;98874;;;;572072;246;24152;-71
2022/12/23 00:25:44;;;;;;;7.97;5.00;;;5.30;99.90;4.40;98882;;;;571930;246;24087;-72
2022/12/23 00:28:18;;;;;;;5.50;4.33;;;5.30;99.90;4.40;98885;;;;572351;246;24099;-71
2022/12/23 00:31:07;;;;;;;8.40;4.40;;;5.20;99.90;4.40;98880;;;;581161;246;24096;-74
2022/12/23 00:33:35;;;;;;;6.13;4.17;;;5.20;99.90;4.40;98877;;;;572474;246;24103;-74
2022/12/23 00:36:03;;;;;;;7.03;4.13;;;5.20;99.90;4.40;98882;;;;578526;246;24096;-71
2022/12/23 00:44:06;;;;;;;7.67;4.30;;;5.20;99.90;4.30;98899;;;;572451;246;24082;-73
2022/12/23 00:46:31;;;;;;;5.73;4.30;;;5.10;99.90;4.30;98898;;;;572134;246;24145;-72
2022/12/23 00:51:45;;;;;;;6.50;4.30;;;5.10;99.90;4.30;98904;;;;572472;246;24089;-70
2022/12/23 00:54:13;;;;;;;8.67;4.50;;;5.10;99.90;4.30;98904;;;;572105;246;24122;-71
2022/12/23 00:56:41;;;;;;;5.07;3.83;;;5.10;99.90;4.30;98904;;;;572118;246;24196;-72
2022/12/23 00:59:09;;;;;;;6.03;4.37;;;5.10;99.90;4.30;98899;;;;572242;246;24092;-73
2022/12/23 01:07:13;;;;;;;6.00;4.77;;;5.10;99.90;4.30;98905;;;;572494;246;24137;-71
2022/12/23 01:09:38;;;;;;;6.13;4.37;;;5.10;99.90;4.30;98899;;;;578736;245;24097;-72
2022/12/23 01:12:06;;;;;;;8.40;4.70;;;5.10;99.90;4.30;98899;;;;571600;246;24111;-71
2022/12/23 01:14:33;;;;;;;10.53;5.07;;;5.10;99.90;4.30;98907;;;;572946;246;24134;-71
2022/12/23 01:17:02;;;;;;;9.30;5.57;;;5.10;99.90;4.30;98888;;;;573025;246;24112;-76
2022/12/23 01:19:30;;;;;;;8.63;5.10;;;5.10;99.90;4.30;98896;;;;572619;246;24087;-77
2022/12/23 01:21:58;;;;;;;7.23;4.90;;;5.10;99.90;4.30;98885;;;;573014;246;24089;-79
2022/12/23 01:24:32;;;;;;;8.80;5.67;;;5.10;99.90;4.30;98889;;;;572536;246;24100;-78
2022/12/23 01:27:00;;;;;;;8.10;5.87;;;5.10;99.90;4.30;98890;;;;572673;246;24120;-77
2022/12/23 01:29:25;;;;;;;10.97;5.17;;;5.10;99.90;4.30;98889;;;;582901;245;24095;-78
2022/12/23 01:31:52;;;;;;;6.73;5.47;;;5.10;99.90;4.30;98895;;;;572233;246;24107;-78
2022/12/23 01:34:20;;;;;;;7.90;5.07;;;5.10;99.90;4.30;98893;;;;572260;246;24126;-80
2022/12/23 01:36:48;;;;;;;10.30;6.07;;;5.10;99.90;4.30;98895;;;;572634;246;24081;-77
2022/12/23 01:39:17;;;;;;;8.53;6.73;;;5.20;99.90;4.40;98890;;;;572529;246;24087;-76
2022/12/23 01:44:53;;;;;;;11.43;6.33;;;5.20;99.90;4.40;98904;;;;572951;246;24128;-77
2022/12/23 01:47:30;;;;;;;10.33;7.07;;;5.20;99.90;4.40;98902;;;;577769;246;24098;-74
2022/12/23 01:50:16;;;;;;;9.40;6.30;;;5.20;99.90;4.40;98895;;;;572221;246;24111;-76
2022/12/23 01:52:59;;;;;;;11.83;6.23;;;5.20;99.90;4.40;98889;;;;572654;246;24105;-72
2022/12/23 01:55:27;;;;;;;9.10;6.70;;;5.20;99.90;4.40;98894;;;;579314;246;24077;-73
2022/12/23 01:57:54;;;;;;;8.70;6.17;;;5.20;99.90;4.50;98888;;;;581392;246;24093;-73
2022/12/23 02:09:15;;;;;;;8.73;5.53;;;5.30;99.90;4.50;98909;;;;579136;246;24125;-71
2022/12/23 02:11:27;;;;;;;7.70;5.73;;;5.30;99.90;4.50;98902;;;;572576;246;24125;-71
2022/12/23 02:16:50;;;;;;;7.97;5.73;;;5.30;99.90;4.50;98899;;;;572187;246;24199;-72
2022/12/23 02:19:18;;;;;;;6.27;4.33;;;5.40;99.90;4.60;98896;;;;580664;246;24082;-71
2022/12/23 02:21:55;;;;;;;12.37;8.95;;;5.40;99.90;4.60;98897;;;;573449;246;35309;-73
2022/12/23 02:24:32;;;;;;;10.23;6.83;;;5.40;99.90;4.60;98890;;;;580632;244;24113;-71
2022/12/23 02:27:14;;;;;;;12.93;9.15;;;5.40;99.90;4.70;98898;;;;566920;246;35358;-71
2022/12/23 02:30:32;;;;;;;11.20;6.83;;;5.50;99.90;4.70;98900;;;;581315;246;24126;-70
2022/12/23 02:33:30;;;;;;;8.27;5.53;;;5.50;99.90;4.70;98904;;;;582073;246;24106;-71
2022/12/23 02:36:06;;;;;;;8.90;5.13;;;5.50;99.90;4.80;98905;;;;572451;246;24093;-70
2022/12/23 02:38:34;;;;;;;10.27;5.23;;;5.60;99.90;4.80;98902;;;;579109;246;24079;-72
2022/12/23 02:41:42;;;;;;;13.87;5.60;;;5.60;99.90;4.80;98904;;;;572872;245;24108;-73
2022/12/23 02:44:34;;;;;;;8.73;5.87;;;5.60;99.90;4.90;98912;;;;581602;246;24181;-71
2022/12/23 02:47:04;;;;;;;8.20;4.97;;;5.70;99.90;4.90;98910;;;;575035;246;24131;-71
2022/12/23 02:49:32;;;;;;;9.57;5.67;;;5.70;99.90;5.00;98911;;;;572380;245;24146;-73
2022/12/23 02:52:00;;;;;;;11.13;5.50;;;5.80;99.90;5.00;98905;;;;572553;246;24119;-71
2022/12/23 02:54:31;;;;;;;10.20;5.07;;;5.80;99.90;5.00;98897;;;;580980;245;24083;-72
2022/12/23 02:57:02;;;;;;;9.37;4.97;;;5.80;99.90;5.00;98892;;;;581086;246;24089;-73
2022/12/23 02:59:27;;;;;;;7.83;4.83;;;5.80;99.90;5.00;98897;;;;578677;246;24086;-75
2022/12/23 03:01:55;;;;;;;8.83;4.83;;;5.90;99.90;5.00;98901;;;;580622;246;24088;-72
2022/12/23 03:04:23;;;;;;;7.30;4.63;;;5.80;99.90;4.90;98898;;;;575469;246;24104;-76
2022/12/23 03:06:56;;;;;;;6.00;4.67;;;5.70;99.90;4.90;98894;;;;571789;246;24103;-71
2022/12/23 03:09:45;;;;;;;8.43;5.23;;;5.70;99.90;4.90;98899;;;;580641;243;24115;-75
2022/12/23 03:12:22;;;;;;;8.80;4.97;;;5.70;99.90;4.80;98890;;;;581117;246;24147;-75
2022/12/23 03:15:21;;;;;;;9.33;5.43;;;5.60;99.90;4.80;98891;;;;569117;246;24134;-72
2022/12/23 03:18:11;;;;;;;15.53;4.80;;;5.60;99.90;4.80;98894;;;;572192;246;24111;-73
2022/12/23 03:20:57;;;;;;;10.83;4.70;;;5.60;99.90;4.70;98887;;;;571942;246;24133;-73
2022/12/23 03:23:34;;;;;;;9.17;4.60;;;5.50;99.90;4.70;98886;;;;569713;246;24116;-71
2022/12/23 03:26:16;;;;;;;16.97;4.90;;;5.50;99.90;4.70;98890;;;;572090;246;24149;-79
2022/12/23 03:28:47;;;;;;;6.23;4.67;;;5.50;99.90;4.70;98891;;;;572339;246;24191;-75
2022/12/23 03:31:17;;;;;;;8.20;4.20;;;5.50;99.90;4.70;98888;;;;572056;246;24104;-79
2022/12/23 03:33:45;;;;;;;10.13;3.83;;;5.50;99.90;4.70;98898;;;;581038;246;24119;-77
2022/12/23 03:36:13;;;;;;;9.20;4.60;;;5.50;99.90;4.70;98891;;;;579541;244;24101;-78
2022/12/23 03:38:41;;;;;;;6.53;4.13;;;5.50;99.90;4.80;98887;;;;577386;244;24128;-74
2022/12/23 03:41:09;;;;;;;8.07;4.90;;;5.50;99.90;4.80;98887;;;;573569;246;25127;-77
2022/12/23 03:43:37;;;;;;;14.13;6.00;;;5.60;99.90;4.80;98892;;;;582217;246;24119;-76
2022/12/23 03:46:05;;;;;;;6.80;4.90;;;5.60;99.90;4.80;98894;;;;581772;246;24157;-71
2022/12/23 03:48:35;;;;;;;8.20;4.50;;;5.60;99.90;4.80;98903;;;;572960;246;24155;-73
2022/12/23 03:51:15;;;;;;;10.63;4.70;;;5.60;99.90;4.80;98896;;;;572903;246;25210;-72
2022/12/23 03:53:48;;;;;;;8.43;4.97;;;5.60;99.90;4.90;98902;;;;572541;246;24128;-72
2022/12/23 03:56:19;;;;;;;9.40;5.53;;;5.60;99.90;4.90;98903;;;;572301;246;24088;-74
2022/12/23 03:58:58;;;;;;;6.77;4.73;;;5.70;99.90;4.90;98907;;;;580600;246;24097;-74
2022/12/23 04:02:00;;;;;;;9.07;5.00;;;5.70;99.90;5.00;98905;;;;572384;246;24100;-73
2022/12/23 04:04:40;;;;;;;7.97;5.37;;;5.70;99.90;5.00;98904;;;;572117;246;24089;-71
2022/12/23 04:07:06;;;;;;;11.80;4.87;;;5.70;99.90;5.00;98909;;;;572083;246;24118;-70
2022/12/23 04:09:38;;;;;;;11.00;4.70;;;5.80;99.90;5.00;98890;;;;577588;246;24130;-70
2022/12/23 04:12:02;;;;;;;10.07;5.70;;;5.80;99.90;5.00;98888;;;;571505;246;24115;-71
2022/12/23 04:14:30;;;;;;;11.20;5.10;;;5.80;99.90;5.00;98886;;;;571798;246;24080;-71
2022/12/23 04:16:58;;;;;;;13.77;5.33;;;5.80;99.90;5.00;98878;;;;572142;246;24092;-71
2022/12/23 04:19:26;;;;;;;8.37;5.07;;;5.80;99.90;5.00;98878;;;;572131;246;24129;-76
2022/12/23 04:21:57;;;;;;;8.73;4.67;;;5.80;99.90;4.90;98875;;;;572156;246;24081;-75
2022/12/23 04:24:25;;;;;;;8.10;5.40;;;5.70;99.90;4.80;98883;;;;572051;246;24135;-70
2022/12/23 04:26:53;;;;;;;12.87;5.77;;;5.60;99.90;4.80;98892;;;;572031;246;24085;-71
2022/12/23 04:29:21;;;;;;;10.13;5.23;;;5.60;99.90;4.70;98891;;;;572053;246;24112;-69
2022/12/23 04:31:49;;;;;;;11.20;5.30;;;5.50;99.90;4.70;98895;;;;572021;246;24128;-71
2022/12/23 04:34:16;;;;;;;13.80;6.37;;;5.50;99.90;4.70;98898;;;;572074;246;24080;-70
2022/12/23 04:36:44;;;;;;;8.47;6.23;;;5.50;99.90;4.80;98911;;;;571684;246;24100;-71
2022/12/23 04:39:12;;;;;;;12.53;7.03;;;5.60;99.90;4.80;98911;;;;571891;246;24091;-70
2022/12/23 04:41:40;;;;;;;12.73;7.07;;;5.60;99.90;4.90;98900;;;;571739;246;24094;-71
2022/12/23 04:44:12;;;;;;;14.27;6.70;;;5.70;99.90;4.90;98901;;;;571911;246;24130;-70
2022/12/23 04:46:36;;;;;;;14.07;7.20;;;5.70;99.90;4.90;98902;;;;580128;246;24131;-71
2022/12/23 04:49:04;;;;;;;18.00;7.23;;;5.70;99.90;5.00;98898;;;;572952;246;24121;-77
2022/12/23 04:51:32;;;;;;;11.47;7.47;;;5.80;99.90;5.00;98904;;;;573113;246;24135;-76
2022/12/23 04:54:03;;;;;;;16.00;8.20;;;5.80;99.90;5.00;98906;;;;572571;246;24093;-77
2022/12/23 04:56:30;;;;;;;14.80;7.40;;;5.80;99.90;5.00;98903;;;;572838;246;24072;-79
2022/12/23 04:59:01;;;;;;;12.20;7.30;;;5.80;99.90;5.00;98905;;;;572416;246;24116;-74
2022/12/23 05:01:30;;;;;;;13.20;7.67;;;5.80;99.90;5.00;98898;;;;573062;246;24084;-78
2022/12/23 05:03:58;;;;;;;13.40;7.73;;;5.80;99.90;5.00;98905;;;;572880;246;24139;-72
2022/12/23 05:06:23;;;;;;;12.50;6.83;;;5.80;99.90;4.90;98905;;;;572498;246;24110;-78
2022/12/23 05:08:51;;;;;;;13.13;7.27;;;5.70;99.90;4.90;98913;;;;572654;246;24118;-71
2022/12/23 05:11:19;;;;;;;19.13;8.03;;;5.70;99.90;4.80;98919;;;;572450;246;24103;-77
2022/12/23 05:13:47;;;;;;;15.10;7.93;;;5.60;99.90;4.80;98907;;;;572664;246;24116;-78
2022/12/23 05:16:14;;;;;;;14.90;8.07;;;5.60;99.90;4.80;98916;;;;572443;246;25144;-76
2022/12/23 05:18:42;;;;;;;16.63;7.20;;;5.60;99.90;4.70;98917;;;;572429;246;24136;-72
2022/12/23 05:21:10;;;;;;;13.17;7.30;;;5.50;99.90;4.70;98906;;;;572903;246;24193;-72
2022/12/23 05:23:38;;;;;;;14.97;6.50;;;5.50;99.90;4.80;98904;;;;572978;246;24084;-74
2022/12/23 05:26:10;;;;;;;14.37;7.70;;;5.50;99.90;4.70;98910;;;;572563;246;24213;-78
2022/12/23 05:28:34;;;;;;;12.07;6.90;;;5.60;99.90;4.70;98912;;;;572025;246;24110;-71
2022/12/23 05:31:06;;;;;;;18.53;7.53;;;5.50;99.90;4.70;98906;;;;572171;246;24099;-73
2022/12/23 05:33:34;;;;;;;16.87;7.47;;;5.50;99.90;4.70;98911;;;;570145;246;24086;-70
2022/12/23 05:36:02;;;;;;;14.47;7.40;;;5.50;99.90;4.70;98902;;;;572166;246;24092;-71
2022/12/23 05:38:30;;;;;;;14.03;7.40;;;5.50;99.90;4.70;98895;;;;571868;246;24082;-70
2022/12/23 05:40:58;;;;;;;13.47;8.07;;;5.50;99.90;4.70;98907;;;;571870;246;24130;-73
2022/12/23 05:43:25;;;;;;;19.97;6.80;;;5.50;99.90;4.70;98901;;;;572184;246;24092;-76
2022/12/23 05:45:53;;;;;;;15.50;8.03;;;5.50;99.90;4.70;98891;;;;571886;246;24097;-73
2022/12/23 05:48:21;;;;;;;12.77;7.23;;;5.50;99.90;4.70;98895;;;;571832;246;24150;-76
2022/12/23 05:50:49;;;;;;;13.90;7.23;;;5.50;99.90;4.70;98893;;;;572004;246;24093;-74
2022/12/23 05:53:20;;;;;;;16.87;6.87;;;5.50;99.90;4.60;98885;;;;580952;246;24124;-76
2022/12/23 05:55:48;;;;;;;17.17;6.97;;;5.40;99.90;4.60;98894;;;;569986;246;24127;-72
2022/12/23 05:58:14;;;;;;;12.87;6.83;;;5.40;99.90;4.60;98890;;;;580877;246;24102;-72
2022/12/23 06:00:42;;;;;;;11.30;6.90;;;5.30;99.90;4.50;98888;;;;573132;246;24107;-73
2022/12/23 06:03:10;;;;;;;10.10;6.20;;;5.30;99.90;4.50;98895;;;;573106;246;24089;-72
2022/12/23 06:05:38;;;;;;;8.97;6.03;;;5.20;99.90;4.40;98902;;;;572737;246;24117;-75
2022/12/23 06:08:06;;;;;;;8.43;5.67;;;5.20;99.90;4.40;98917;;;;573201;246;24105;-74
2022/12/23 06:10:34;;;;;;;12.63;6.17;;;5.20;99.90;4.40;98909;;;;572609;246;24090;-70
2022/12/23 06:13:02;;;;;;;9.67;5.83;;;5.20;99.90;4.50;98911;;;;572476;246;24081;-76
2022/12/23 06:15:31;;;;;;;10.97;5.90;;;5.30;99.90;4.50;98902;;;;572430;246;24077;-75
2022/12/23 06:17:59;;;;;;;14.47;6.87;;;5.40;99.90;4.60;98914;;;;572690;246;24194;-76
2022/12/23 06:20:31;;;;;;;9.97;5.50;;;5.30;99.90;4.60;98919;;;;572419;246;24156;-71
2022/12/23 06:22:55;;;;;;;10.27;6.10;;;5.40;99.90;4.70;98914;;;;581008;246;24100;-75
2022/12/23 06:25:23;;;;;;;10.87;6.17;;;5.50;99.90;4.70;98910;;;;572314;246;25141;-78
2022/12/23 06:27:51;;;;;;;9.73;5.60;;;5.50;99.90;4.70;98923;;;;572198;246;24089;-76
2022/12/23 06:30:22;;;;;;;9.33;5.70;;;5.50;99.90;4.80;98923;;;;572312;246;24139;-78
2022/12/23 06:32:52;;;;;;;10.03;5.33;;;5.60;99.90;4.80;98923;;;;572200;246;24122;-76
2022/12/23 06:35:20;;;;;;;13.20;5.50;;;5.60;99.90;4.80;98919;;;;581147;246;24104;-74
2022/12/23 06:37:48;;;;;;;9.20;5.30;;;5.60;99.90;4.70;98916;;;;572070;246;24190;-70
2022/12/23 06:40:16;;;;;;;8.93;5.63;;;5.50;99.90;4.70;98921;;;;572232;246;24077;-80
2022/12/23 06:42:44;;;;;;;6.97;5.43;;;5.50;99.90;4.60;98917;;;;572381;246;24112;-73
2022/12/23 06:45:12;;;;;;;12.80;6.10;;;5.40;99.90;4.50;98924;;;;572253;246;24098;-72
2022/12/23 06:47:40;;;;;;;13.20;6.83;;;5.40;99.90;4.50;98918;;;;572328;246;24091;-75
2022/12/23 06:50:11;;;;;;;7.23;4.77;;;5.30;99.90;4.50;98918;;;;572405;246;25233;-77
2022/12/23 06:52:35;;;;;;;10.63;5.83;;;5.30;99.90;4.40;98926;;;;569965;246;24097;-76
2022/12/23 06:55:03;;;;;;;8.70;5.77;;;5.20;99.90;4.40;98922;;;;572225;246;24153;-78
2022/12/23 06:57:31;;;;;;;12.07;5.53;;;5.20;99.90;4.40;98932;;;;571883;246;24093;-74
2022/12/23 07:00:00;;;;;;;12.33;5.77;;;5.20;99.90;4.40;98923;;;;572020;246;24135;-71
2022/12/23 07:02:28;;;;;;;8.57;5.93;;;5.20;99.90;4.40;98936;;;;571889;246;24086;-74
2022/12/23 07:04:56;;;;;;;12.50;6.17;;;5.20;99.90;4.40;98938;;;;571840;246;24096;-78
2022/12/23 07:07:24;;;;;;;9.87;6.00;;;5.10;99.90;4.40;98947;;;;571928;242;24107;-79
2022/12/23 07:09:52;;;;;;;11.13;5.90;;;5.20;99.90;4.40;98952;;;;572281;246;24095;-74
2022/12/23 07:12:20;;;;;;;12.27;5.97;;;5.20;99.90;4.40;98957;;;;573380;246;24207;-79
2022/12/23 07:14:48;;;;;;;19.50;6.47;;;5.20;99.90;4.50;98963;;;;573325;246;24107;-80
2022/12/23 07:17:16;;;;;;;13.40;5.07;;;5.30;99.90;4.50;98962;;;;573279;246;24081;-81
2022/12/23 07:19:44;;;;;;;10.90;5.00;;;5.30;99.90;4.50;98966;;;;580129;246;24093;-75
2022/12/23 07:22:12;;;;;;;10.97;6.70;;;5.30;99.90;4.60;98963;;;;572787;246;24135;-76
2022/12/23 07:24:40;;;;;;;8.50;6.27;;;5.40;99.90;4.60;98955;;;;572223;246;24107;-74
2022/12/23 07:27:08;;;;;;;11.83;8.47;;;5.40;99.90;4.60;98945;;;;572192;246;24096;-76
2022/12/23 07:29:35;;;;;;;14.83;6.93;;;5.40;99.90;4.60;98950;;;;572110;246;24171;-72
2022/12/23 07:32:07;;;;;;;12.73;7.57;;;5.40;99.90;4.60;98958;;;;571939;246;24172;-71
2022/12/23 07:34:31;;;;;;;11.73;5.83;;;5.40;99.90;4.60;98964;;;;569330;246;24127;-71
2022/12/23 07:37:03;;;;;;;11.53;5.87;;;5.40;99.90;4.60;98958;;;;571917;246;24127;-71
2022/12/23 07:39:30;;;;;;;8.93;5.90;;;5.40;99.90;4.70;98950;;;;582792;246;24164;-70
2022/12/23 07:41:55;;;;;;;11.53;6.93;;;5.50;99.90;4.70;98954;;;;572436;246;24089;-70
2022/12/23 07:44:23;;;;;;;15.27;6.87;;;5.50;99.90;4.70;98952;;;;572330;246;24077;-71
2022/12/23 07:46:51;;;;;;;19.27;9.85;;;5.50;99.90;4.80;98960;;;;567339;246;35363;-71
2022/12/23 07:49:19;;;;;;;10.67;6.43;;;5.50;99.90;4.80;98957;;;;572057;246;24193;-71
2022/12/23 07:51:47;;;;;;;10.90;6.00;;;5.60;99.90;4.80;98952;;;;572050;246;24080;-72
2022/12/23 07:54:14;;;;;;;9.57;6.47;;;5.60;99.90;4.90;98958;;;;572235;246;24117;-73
2022/12/23 07:56:42;;;;;;;12.07;6.43;;;5.70;99.90;4.90;98950;;;;572219;246;24089;-72
2022/12/23 07:59:10;;;;;;;16.80;8.53;;;5.70;99.90;4.90;98945;;;;572128;246;24151;-77
2022/12/23 08:01:38;;;;;;;6.90;5.67;;;5.80;99.90;4.90;98937;;;;572134;246;24093;-74
2022/12/23 08:04:06;;;;;;;19.67;8.17;;;5.80;99.90;4.90;98949;;;;572134;246;24152;-77
2022/12/23 08:06:37;;;;;;;10.40;6.27;;;5.70;99.90;4.90;98948;;;;572036;246;24090;-71
2022/12/23 08:09:08;;;;;;;12.60;6.57;;;5.80;99.90;5.00;98950;;;;571667;246;24092;-71
2022/12/23 08:11:37;;;;;;;14.63;6.43;;;5.70;99.90;5.00;98948;;;;571968;246;24130;-72
2022/12/23 08:14:01;;;;;;;10.80;6.23;;;5.80;99.90;5.10;98953;;;;571926;246;24104;-75
2022/12/23 08:16:29;;;;;;;14.00;6.77;;;5.90;99.90;5.10;98951;;;;572013;246;24168;-78
2022/12/23 08:18:57;;;;;;;10.40;6.13;;;5.90;99.90;5.20;98955;;;;571981;246;24108;-71
2022/12/23 08:21:25;;;;;;;10.20;6.03;;;6.00;99.90;5.20;98944;;;;572027;246;25129;-75
2022/12/23 08:23:53;;;;;;;9.53;6.03;;;6.00;99.90;5.20;98959;;;;573159;246;24114;-71
2022/12/23 08:26:21;;;;;;;11.40;5.97;;;6.00;99.90;5.30;98961;;;;572728;246;24094;-74
2022/12/23 08:28:49;;;;;;;12.87;6.40;;;6.10;99.90;5.30;98950;;;;573012;246;24101;-70
2022/12/23 08:31:18;;;;;;;13.33;6.07;;;6.10;99.90;5.30;98961;;;;572827;246;24074;-72
2022/12/23 08:33:45;;;;;;;12.77;7.33;;;6.10;99.90;5.30;98969;;;;581229;244;24099;-73
2022/12/23 08:36:13;;;;;;;13.33;7.47;;;6.10;99.90;5.40;98968;;;;581432;246;24103;-73
2022/12/23 08:38:41;;;;;;;15.40;7.30;;;6.10;99.90;5.40;98965;;;;581249;246;24123;-73
2022/12/23 08:41:12;;;;;;;12.77;7.23;;;6.20;99.90;5.40;98969;;;;572359;246;24090;-73
2022/12/23 08:43:42;;;;;;;10.77;6.90;;;6.20;99.90;5.40;98976;;;;579356;245;24170;-74
2022/12/23 08:46:13;;;;;;;11.47;7.00;;;6.20;99.90;5.40;98977;;;;577417;246;24127;-71
2022/12/23 08:48:38;;;;;;;11.70;7.23;;;6.20;99.90;5.40;98975;;;;572566;246;24110;-76
2022/12/23 08:51:09;;;;;;;10.87;6.47;;;6.20;99.90;5.40;98974;;;;581504;246;24183;-74
2022/12/23 08:53:40;;;;;;;12.30;6.40;;;6.20;99.90;5.40;98965;;;;570046;246;25149;-76
2022/12/23 08:56:05;;;;;;;12.30;7.07;;;6.20;99.90;5.50;98974;;;;572192;246;24100;-79
2022/12/23 08:58:36;;;;;;;11.33;7.57;;;6.30;99.90;5.50;98968;;;;581168;246;24101;-79
2022/12/23 09:01:04;;;;;;;11.40;7.77;;;6.30;99.90;5.50;98969;;;;579949;246;24098;-79
2022/12/23 09:03:32;;;;;;;11.63;7.57;;;6.30;99.90;5.60;98964;;;;572151;246;24096;-80
2022/12/23 09:06:03;;;;;;;12.67;8.70;;;6.40;99.90;5.60;98968;;;;569580;246;24126;-77
2022/12/23 09:08:31;;;;;;;13.63;7.50;;;6.30;99.90;5.60;98963;;;;580784;243;24137;-80
2022/12/23 09:10:59;;;;;;;15.97;8.07;;;6.40;99.90;5.70;98955;;;;571702;246;24134;-79
2022/12/23 09:13:27;;;;;;;12.90;6.87;;;6.50;99.90;5.70;98958;;;;572103;246;24103;-80
2022/12/23 09:15:55;;;;;;;10.73;7.43;;;6.50;99.90;5.70;98953;;;;571813;246;24091;-79
2022/12/23 09:18:22;;;;;;;9.03;6.10;;;6.50;99.90;5.70;98955;;;;572142;246;24099;-80
2022/12/23 09:20:50;;;;;;;11.77;6.47;;;6.50;99.90;5.70;98949;;;;571864;246;24190;-78
2022/12/23 09:23:18;;;;;;;14.03;7.60;;;6.50;99.90;5.70;98944;;;;580111;246;24167;-74
2022/12/23 09:25:46;;;;;;;10.50;6.37;;;6.50;99.90;5.70;98953;;;;571631;246;24098;-78
2022/12/23 09:28:14;;;;;;;11.57;7.17;;;6.60;99.90;5.80;98945;;;;571881;246;24070;-71
2022/12/23 09:30:45;;;;;;;14.03;6.87;;;6.50;99.90;5.70;98946;;;;572001;246;24092;-74
2022/12/23 09:33:10;;;;;;;12.70;7.33;;;6.50;99.90;5.70;98945;;;;571144;246;24097;-73
2022/12/23 09:35:38;;;;;;;10.87;6.60;;;6.50;99.90;5.70;98947;;;;573719;246;24107;-72
2022/12/23 09:38:06;;;;;;;15.27;8.17;;;6.50;99.90;5.70;98947;;;;572982;246;24087;-75
2022/12/23 09:40:34;;;;;;;14.60;8.00;;;6.50;99.90;5.80;98950;;;;572447;246;24142;-73
2022/12/23 09:43:07;;;;;;;13.80;7.47;;;6.50;99.90;5.80;98944;;;;581493;246;24126;-76
2022/12/23 09:46:08;;;;;;;11.67;7.20;;;6.60;99.90;5.80;98957;;;;579243;246;24090;-78
2022/12/23 09:48:36;;;;;;;10.90;6.63;;;6.50;99.90;5.80;98956;;;;572617;246;24081;-71
2022/12/23 09:51:08;;;;;;;13.33;7.00;;;6.60;99.90;5.90;98958;;;;580892;246;24085;-73
2022/12/23 09:53:57;;;;;;;10.83;6.77;;;6.70;99.90;5.90;98957;;;;580844;246;24116;-78
2022/12/23 09:56:34;;;;;;;12.13;6.13;;;6.70;99.90;6.00;98959;;;;581042;246;24160;-73
2022/12/23 09:59:36;;;;;;;13.77;7.47;;;6.70;99.90;6.00;98953;;;;571942;246;24122;-77
2022/12/23 10:02:41;;;;;;;16.03;7.43;;;6.70;99.90;6.00;98954;;;;571608;246;24093;-70
2022/12/23 10:05:35;;;;;;;18.57;7.50;;;6.80;99.90;6.10;98946;;;;572406;246;24079;-72
2022/12/23 10:08:21;;;;;;;9.87;6.80;;;6.80;99.90;6.10;98939;;;;578390;244;24090;-73
2022/12/23 10:10:57;;;;;;;11.47;6.50;;;6.90;99.90;6.10;98944;;;;571788;246;24119;-70
2022/12/23 10:13:37;;;;;;;10.80;6.50;;;6.80;99.90;6.10;98934;;;;571595;246;24144;-71
2022/12/23 10:16:14;;;;;;;9.97;7.00;;;6.80;99.90;6.00;98934;;;;580892;246;24086;-73
2022/12/23 10:19:16;;;;;;;11.17;6.93;;;6.80;99.90;6.00;98929;;;;576432;246;24114;-73
2022/12/23 10:21:46;;;;;;;15.63;6.13;;;6.80;99.90;6.10;98939;;;;571727;246;24089;-75
2022/12/23 10:24:23;;;;;;;12.50;6.83;;;6.80;99.90;6.20;98937;;;;570481;246;24105;-74
2022/12/23 10:27:06;;;;;;;11.50;6.70;;;6.90;99.90;6.20;98948;;;;569549;246;24138;-80
2022/12/23 10:29:34;;;;;;;13.20;9.35;;;7.00;99.90;6.30;98936;;;;572413;248;35295;-72
2022/12/23 10:32:17;;;;;;;11.67;7.10;;;7.10;99.90;6.30;98946;;;;564188;251;24165;-76
2022/12/23 10:34:54;;;;;;;17.60;7.47;;;7.10;99.90;6.40;98956;;;;574504;246;24064;-78
2022/12/23 10:37:49;;;;;;;14.17;7.00;;;7.10;99.90;6.40;98950;;;;561180;251;24162;-74
2022/12/23 10:40:23;;;;;;;12.53;7.47;;;7.20;99.90;6.40;98945;;;;562022;250;24103;-71
2022/12/23 10:43:18;;;;;;;16.73;5.93;;;7.20;99.90;6.40;98943;;;;564778;250;24113;-72
2022/12/23 10:46:17;;;;;;;10.70;7.20;;;7.20;99.90;6.40;98944;;;;574497;248;24117;-71
2022/12/23 10:49:14;;;;;;;12.97;6.77;;;7.10;99.90;6.40;98939;;;;569907;249;24167;-72
2022/12/23 10:51:45;;;;;;;9.73;6.67;;;7.10;99.90;6.40;98948;;;;565455;249;24146;-71
2022/12/23 10:54:13;;;;;;;10.43;5.27;;;7.20;99.90;6.40;98947;;;;568750;249;24127;-72
2022/12/23 10:56:41;;;;;;;11.30;6.47;;;7.10;99.90;6.40;98954;;;;565693;249;24222;-71
2022/12/23 10:59:09;;;;;;;10.57;6.53;;;7.20;99.90;6.40;98961;;;;562308;249;24131;-72
2022/12/23 11:01:36;;;;;;;11.40;7.33;;;7.20;99.90;6.50;98954;;;;573661;249;24133;-71
2022/12/23 11:04:07;;;;;;;12.03;7.17;;;7.20;99.90;6.50;98957;;;;565105;250;24084;-71
2022/12/23 11:06:39;;;;;;;14.77;9.48;;;7.30;99.90;6.60;98952;;;;568301;250;35307;-71
2022/12/23 11:09:07;;;;;;;10.40;6.53;;;7.30;99.90;6.50;98955;;;;569932;248;25203;-72
2022/12/23 11:12:02;;;;;;;16.70;7.67;;;7.30;99.90;6.50;98955;;;;583087;246;24075;-74
2022/12/23 11:14:39;;;;;;;9.53;6.37;;;7.30;99.90;6.50;98962;;;;561995;251;24155;-74
2022/12/23 11:17:21;;;;;;;12.53;6.03;;;7.30;99.90;6.50;98964;;;;559734;252;24141;-74
2022/12/23 11:19:46;;;;;;;15.77;7.40;;;7.30;99.90;6.50;98956;;;;561567;251;24120;-77
2022/12/23 11:22:20;;;;;;;12.67;7.33;;;7.30;99.90;6.50;98960;;;;570115;251;24117;-70
2022/12/23 11:24:48;;;;;;;11.53;6.50;;;7.30;99.90;6.50;98966;;;;580341;244;24085;-78
2022/12/23 11:27:16;;;;;;;11.20;6.43;;;7.30;99.90;6.50;98960;;;;569761;251;24222;-76
2022/12/23 11:29:49;;;;;;;14.03;6.93;;;7.30;99.90;6.50;98964;;;;559125;252;24131;-77
2022/12/23 11:32:20;;;;;;;15.60;7.50;;;7.30;99.90;6.60;98960;;;;576671;247;24086;-79
2022/12/23 11:34:48;;;;;;;13.07;6.70;;;7.30;99.90;6.70;98959;;;;579376;246;24077;-78
2022/12/23 11:37:28;;;;;;;11.07;6.60;;;7.40;99.90;6.70;98966;;;;572372;251;24169;-78
2022/12/23 11:39:56;;;;;;;11.63;7.30;;;7.50;99.90;6.70;98962;;;;557934;251;24211;-79
2022/12/23 11:42:26;;;;;;;10.77;7.30;;;7.50;99.90;6.80;98968;;;;558939;252;24132;-76
2022/12/23 11:44:52;;;;;;;12.40;7.07;;;7.50;99.90;6.80;98964;;;;567581;251;24176;-77
2022/12/23 11:47:24;;;;;;;13.80;7.50;;;7.50;99.90;6.70;98962;;;;572032;249;24136;-77
2022/12/23 11:50:00;;;;;;;17.70;10.65;;;7.50;99.90;6.70;98961;;;;556226;251;35464;-78
2022/12/23 11:52:31;;;;;;;13.37;8.33;;;7.50;99.90;6.70;98967;;;;559746;250;24114;-78
2022/12/23 11:54:56;;;;;;;12.00;8.03;;;7.50;99.90;6.70;98970;;;;576612;248;24107;-78
2022/12/23 11:57:38;;;;;;;17.27;8.40;;;7.50;99.90;6.70;98969;;;;569119;250;24154;-74
2022/12/23 12:00:10;;;;;;;14.30;7.50;;;7.50;99.90;6.70;98970;;;;571455;250;24171;-79
2022/12/23 12:02:38;;;;;;;11.70;7.60;;;7.50;99.90;6.80;98960;;;;568127;252;24185;-70
2022/12/23 12:05:36;;;;;;;12.83;6.73;;;7.50;99.90;6.80;98968;;;;579895;246;24124;-76
2022/12/23 12:08:04;;;;;;;12.80;7.53;;;7.60;99.90;6.80;98963;;;;560215;251;24215;-78
2022/12/23 12:10:38;;;;;;;18.17;8.57;;;7.50;99.90;6.70;98965;;;;564473;251;24149;-80
2022/12/23 12:13:06;;;;;;;12.57;7.53;;;7.50;99.90;6.70;98966;;;;566797;251;24129;-80
2022/12/23 12:15:36;;;;;;;16.70;8.77;;;7.50;99.90;6.60;98968;;;;564139;250;24121;-75
2022/12/23 12:18:04;;;;;;;16.47;8.03;;;7.40;99.90;6.60;98957;;;;559795;250;24097;-74